Time;durP1;ratioP1;P1;durP2;ratioP2;P2;SDS_P1;SDS_P2;PMS_P1;PMS_P2;Temp;Humidity;BMP_temperature;BMP_pressure;BME280_temperature;BME280_humidity;BME280_pressure;Samples;Min_cycle;Max_cycle;Signal;HPM_P1;HPM_P2
2022/01/23 00:00:01;;;;;;;3.70;2.83;;;;;;;-4.00;72.87;95441.22;5081997;28;20236;-71
2022/01/23 00:02:29;;;;;;;3.40;3.10;;;;;;;-3.81;72.49;95441.75;5084146;28;20193;-71
2022/01/23 00:04:56;;;;;;;2.87;2.67;;;;;;;-3.83;72.52;95442.53;5079742;28;20211;-71
2022/01/23 00:07:26;;;;;;;6.13;2.93;;;;;;;-3.69;71.90;95453.66;5081449;28;20210;-71
2022/01/23 00:09:54;;;;;;;4.00;3.30;;;;;;;-3.87;71.58;95463.09;5082260;28;21261;-71
2022/01/23 00:12:24;;;;;;;3.20;2.93;;;;;;;-3.77;72.11;95460.06;5079301;28;20655;-69
2022/01/23 00:17:35;;;;;;;4.47;2.93;;;;;;;-3.67;71.86;95466.94;5083818;28;20209;-72
2022/01/23 00:20:07;;;;;;;4.47;2.93;;;;;;;-3.66;71.29;95462.81;5079530;28;20225;-70
2022/01/23 00:22:40;;;;;;;3.93;3.00;;;;;;;-3.74;71.77;95464.28;5080543;28;20221;-72
2022/01/23 00:30:39;;;;;;;4.17;3.67;;;;;;;-3.88;72.80;95466.38;5079113;28;20252;-71
2022/01/23 00:33:07;;;;;;;4.40;3.50;;;;;;;-4.15;74.25;95471.41;5081924;28;20197;-70
2022/01/23 00:35:36;;;;;;;5.93;3.90;;;;;;;-4.11;74.35;95463.25;5082618;28;20254;-68
2022/01/23 00:38:08;;;;;;;3.70;3.33;;;;;;;-4.04;74.49;95481.66;5082710;28;20702;-69
2022/01/23 00:40:37;;;;;;;4.50;3.93;;;;;;;-3.90;74.31;95478.75;5081660;28;20342;-71
2022/01/23 00:43:12;;;;;;;5.07;3.77;;;;;;;-3.89;73.97;95469.66;5082011;28;22069;-71
2022/01/23 00:45:45;;;;;;;4.97;3.83;;;;;;;-3.97;73.92;95483.50;5083306;28;20201;-70
2022/01/23 00:48:13;;;;;;;3.77;3.50;;;;;;;-4.03;74.53;95484.19;5082691;28;20325;-71
2022/01/23 00:50:42;;;;;;;5.77;3.40;;;;;;;-3.77;74.82;95477.47;5081920;28;21400;-71
2022/01/23 00:53:12;;;;;;;3.40;3.20;;;;;;;-3.63;74.61;95478.66;5081382;28;20213;-72
2022/01/23 00:55:40;;;;;;;3.40;3.10;;;;;;;-3.70;74.16;95479.28;5082731;28;21867;-72
2022/01/23 00:58:08;;;;;;;4.07;3.40;;;;;;;-3.63;73.59;95477.81;5081418;28;20755;-69
2022/01/23 01:00:35;;;;;;;4.20;3.07;;;;;;;-3.37;73.22;95481.84;5081593;28;20777;-72
2022/01/23 01:03:02;;;;;;;3.30;3.00;;;;;;;-3.38;72.54;95479.31;5083471;28;20228;-71
2022/01/23 01:05:30;;;;;;;4.63;3.33;;;;;;;-3.24;72.87;95478.03;5083821;28;20209;-69
2022/01/23 01:07:58;;;;;;;6.67;3.63;;;;;;;-3.45;73.22;95474.16;5083695;28;20202;-70
2022/01/23 01:10:33;;;;;;;3.57;3.27;;;;;;;-3.52;74.05;95472.34;5081455;28;20212;-69
2022/01/23 01:13:02;;;;;;;3.13;2.70;;;;;;;-3.55;74.51;95464.81;5082338;28;20253;-72
2022/01/23 01:15:38;;;;;;;4.40;3.20;;;;;;;-3.57;73.67;95468.06;5083448;28;20209;-71
2022/01/23 01:31:51;;;;;;;3.60;3.30;;;;;;;-3.81;74.77;95469.06;5082204;28;20208;-74
2022/01/23 01:34:24;;;;;;;3.97;2.93;;;;;;;-3.81;75.55;95478.16;5082882;28;20246;-69
2022/01/23 01:36:52;;;;;;;4.27;3.33;;;;;;;-3.85;76.31;95477.22;5082540;28;21401;-69
2022/01/23 01:39:23;;;;;;;4.20;3.80;;;;;;;-3.77;75.94;95474.97;5081670;28;20259;-71
2022/01/23 01:41:52;;;;;;;3.97;3.13;;;;;;;-4.18;76.50;95461.38;5082429;28;20219;-71
2022/01/23 01:44:19;;;;;;;5.87;3.33;;;;;;;-4.02;76.82;95477.56;5081889;28;20209;-71
2022/01/23 01:46:46;;;;;;;5.20;2.90;;;;;;;-3.97;75.48;95476.06;5081157;28;20208;-71
2022/01/23 01:49:13;;;;;;;4.30;3.53;;;;;;;-3.92;75.06;95474.53;5082145;28;20212;-71
2022/01/23 01:51:40;;;;;;;2.90;2.70;;;;;;;-4.03;75.58;95465.97;5081886;28;20194;-70
2022/01/23 01:54:13;;;;;;;3.20;2.93;;;;;;;-4.00;75.74;95473.50;5079759;28;20283;-70
2022/01/23 01:56:48;;;;;;;3.90;3.43;;;;;;;-4.07;76.12;95472.47;5080845;28;20262;-69
2022/01/23 01:59:46;;;;;;;2.93;2.73;;;;;;;-4.11;75.24;95469.06;5081583;28;20319;-71
2022/01/23 02:10:27;;;;;;;3.57;3.20;;;;;;;-4.18;76.62;95477.13;5081933;28;21910;-72
2022/01/23 02:13:04;;;;;;;6.03;3.37;;;;;;;-4.09;76.55;95475.69;5079775;28;20201;-70
2022/01/23 02:52:02;;;;;;;4.10;3.47;;;;;;;-4.73;77.29;95501.06;5080368;28;20215;-69
2022/01/23 02:57:21;;;;;;;6.30;3.87;;;;;;;-4.56;76.50;95500.78;5082486;28;21427;-69
2022/01/23 02:59:49;;;;;;;10.37;3.87;;;;;;;-4.44;75.88;95497.81;5084992;28;20374;-70
2022/01/23 03:02:28;;;;;;;5.43;3.67;;;;;;;-4.70;76.60;95499.50;5085358;28;20228;-68
2022/01/23 03:05:00;;;;;;;6.57;4.17;;;;;;;-4.96;77.46;95507.78;5084814;28;20296;-68
2022/01/23 03:10:19;;;;;;;7.80;4.20;;;;;;;-5.41;77.97;95500.47;5081302;28;20209;-70
2022/01/23 03:15:45;;;;;;;5.43;4.40;;;;;;;-5.13;77.69;95517.97;5084931;28;20196;-69
2022/01/23 03:26:32;;;;;;;5.30;4.80;;;;;;;-5.19;77.61;95524.34;5085216;28;20212;-70
2022/01/23 03:29:20;;;;;;;8.17;3.80;;;;;;;-5.30;77.52;95528.09;5085319;28;20211;-72
2022/01/23 03:32:01;;;;;;;4.40;3.83;;;;;;;-5.27;77.84;95505.91;5084228;28;20200;-71
2022/01/23 03:34:28;;;;;;;5.70;4.67;;;;;;;-5.24;77.34;95524.22;5083189;28;20686;-71
2022/01/23 03:36:57;;;;;;;5.33;4.23;;;;;;;-5.12;77.49;95528.72;5084557;28;20205;-71
2022/01/23 03:39:25;;;;;;;6.23;4.53;;;;;;;-5.08;77.59;95525.56;5085073;28;20225;-71
2022/01/23 03:41:53;;;;;;;7.07;3.77;;;;;;;-4.85;76.90;95522.19;5081664;28;20212;-70
2022/01/23 03:44:22;;;;;;;7.47;4.50;;;;;;;-4.87;75.89;95526.25;5084691;28;20197;-72
2022/01/23 03:47:01;;;;;;;4.73;3.63;;;;;;;-4.82;75.53;95526.41;5084985;28;20205;-71
2022/01/23 03:49:31;;;;;;;4.70;4.17;;;;;;;-4.91;75.27;95524.47;5085002;28;20579;-70
2022/01/23 03:51:59;;;;;;;5.63;4.13;;;;;;;-4.90;76.08;95530.25;5083385;28;20201;-69
2022/01/23 03:54:27;;;;;;;5.17;4.47;;;;;;;-4.76;75.75;95520.81;5084190;28;21475;-72
2022/01/23 03:56:57;;;;;;;4.10;3.70;;;;;;;-4.84;75.19;95521.41;5084454;28;20686;-70
2022/01/23 03:59:23;;;;;;;7.50;4.27;;;;;;;-4.99;75.46;95525.88;5083929;28;20223;-70
2022/01/23 04:01:50;;;;;;;7.47;4.90;;;;;;;-4.63;74.22;95525.34;5083996;28;20205;-72
2022/01/23 04:04:31;;;;;;;4.27;3.87;;;;;;;-4.32;73.10;95529.63;5084149;28;20224;-69
2022/01/23 04:06:58;;;;;;;3.83;3.53;;;;;;;-4.36;73.08;95535.28;5083613;28;20921;-72
2022/01/23 04:09:25;;;;;;;4.70;4.30;;;;;;;-4.21;72.53;95536.59;5082879;28;20296;-71
2022/01/23 04:11:52;;;;;;;4.87;4.17;;;;;;;-3.96;71.43;95543.09;5083011;28;20333;-71
2022/01/23 04:14:22;;;;;;;3.83;3.53;;;;;;;-4.13;71.87;95535.19;5083493;28;20201;-72
2022/01/23 04:19:40;;;;;;;5.77;4.37;;;;;;;-4.25;71.76;95529.88;5083886;28;20208;-70
2022/01/23 04:33:31;;;;;;;6.03;4.37;;;;;;;-4.16;72.01;95545.00;5083964;28;20204;-72
2022/01/23 05:00:49;;;;;;;4.20;3.83;;;;;;;-4.34;71.80;95561.81;5082604;28;20323;-70
2022/01/23 05:06:05;;;;;;;6.17;4.60;;;;;;;-4.48;73.50;95566.38;5081883;28;21003;-70
2022/01/23 05:08:34;;;;;;;9.93;4.73;;;;;;;-4.21;72.85;95573.84;5082753;28;20328;-70
2022/01/23 05:11:02;;;;;;;6.43;4.60;;;;;;;-4.22;71.61;95578.75;5082895;28;20205;-71
2022/01/23 05:13:31;;;;;;;5.03;3.80;;;;;;;-4.30;71.51;95578.50;5082667;28;20748;-68
2022/01/23 05:15:58;;;;;;;3.70;3.40;;;;;;;-4.10;71.20;95576.63;5082641;28;20249;-69
2022/01/23 05:18:26;;;;;;;4.07;3.67;;;;;;;-3.93;69.05;95580.44;5082283;28;20683;-71
2022/01/23 05:21:02;;;;;;;5.70;3.50;;;;;;;-4.23;69.62;95563.00;5081691;28;20224;-70
2022/01/23 05:23:29;;;;;;;4.30;3.90;;;;;;;-4.12;70.46;95581.53;5082371;28;21393;-70
2022/01/23 05:25:55;;;;;;;5.20;4.13;;;;;;;-4.18;69.44;95588.78;5083406;28;21086;-69
2022/01/23 05:28:22;;;;;;;4.13;3.70;;;;;;;-4.40;69.45;95563.25;5082379;28;20205;-71
2022/01/23 05:30:49;;;;;;;5.50;3.73;;;;;;;-4.16;69.53;95587.19;5082073;28;20325;-70
2022/01/23 05:33:15;;;;;;;3.90;3.60;;;;;;;-4.19;69.61;95564.75;5082822;28;20204;-70
2022/01/23 05:35:44;;;;;;;3.50;3.20;;;;;;;-4.04;68.42;95583.41;5083435;28;20258;-71
2022/01/23 05:38:11;;;;;;;5.13;3.37;;;;;;;-4.12;68.79;95595.59;5082013;28;20283;-71
2022/01/23 05:40:40;;;;;;;4.13;3.13;;;;;;;-4.28;69.39;95590.94;5082355;28;20233;-71
2022/01/23 05:43:07;;;;;;;4.50;3.67;;;;;;;-4.49;69.47;95589.50;5082206;28;20221;-71
2022/01/23 05:45:34;;;;;;;6.13;3.77;;;;;;;-4.50;69.82;95597.72;5083681;28;20208;-69
2022/01/23 05:48:01;;;;;;;5.03;3.53;;;;;;;-4.61;69.50;95598.16;5082590;28;20216;-70
2022/01/23 05:50:28;;;;;;;3.07;2.83;;;;;;;-4.67;70.41;95595.47;5082394;28;20208;-70
2022/01/23 05:52:56;;;;;;;4.80;3.43;;;;;;;-4.64;72.17;95606.34;5083067;28;20224;-71
2022/01/23 05:55:23;;;;;;;3.20;2.93;;;;;;;-4.56;73.51;95601.63;5082637;28;20197;-70
2022/01/23 05:57:49;;;;;;;3.70;3.40;;;;;;;-4.40;73.20;95608.75;5081308;28;20205;-70
2022/01/23 06:00:17;;;;;;;5.57;3.63;;;;;;;-4.14;70.96;95602.97;5081449;28;20726;-71
2022/01/23 06:02:46;;;;;;;5.37;4.50;;;;;;;-4.14;71.38;95600.50;5081315;28;20773;-70
2022/01/23 06:05:13;;;;;;;5.13;3.83;;;;;;;-3.87;70.57;95602.13;5082652;28;20598;-69
2022/01/23 06:07:41;;;;;;;7.63;4.77;;;;;;;-3.74;70.91;95599.22;5083189;28;20287;-72
2022/01/23 06:10:19;;;;;;;5.30;3.83;;;;;;;-3.88;71.29;95598.81;5081768;28;20205;-71
2022/01/23 06:12:46;;;;;;;3.83;3.50;;;;;;;-4.09;72.23;95608.09;5081577;28;20596;-70
2022/01/23 06:15:13;;;;;;;5.33;4.00;;;;;;;-4.04;72.78;95615.69;5081303;28;20258;-70
2022/01/23 06:17:39;;;;;;;3.93;3.40;;;;;;;-3.85;72.08;95610.47;5082128;28;20205;-71
2022/01/23 06:20:11;;;;;;;4.60;3.07;;;;;;;-3.73;70.17;95614.97;5081418;28;20683;-70
2022/01/23 06:22:38;;;;;;;4.83;3.83;;;;;;;-2.86;66.55;95610.78;5082260;28;20228;-71
2022/01/23 06:25:09;;;;;;;3.90;3.60;;;;;;;-1.38;61.83;95601.00;5081579;28;20801;-70
2022/01/23 06:27:37;;;;;;;7.80;4.20;;;;;;;-1.08;59.66;95610.75;5082589;28;20201;-71
2022/01/23 06:30:05;;;;;;;4.87;4.37;;;;;;;-1.04;59.36;95616.66;5080673;28;20310;-70
2022/01/23 06:32:32;;;;;;;6.67;4.10;;;;;;;-0.54;57.79;95611.75;5084349;28;20205;-70
2022/01/23 06:34:58;;;;;;;5.07;4.40;;;;;;;0.45;55.58;95600.81;5086014;28;20319;-71
2022/01/23 06:37:25;;;;;;;6.50;5.83;;;;;;;1.55;52.24;95608.78;5085606;28;20196;-70
2022/01/23 06:39:52;;;;;;;9.00;6.50;;;;;;;1.69;51.33;95591.41;5084645;28;20197;-70
2022/01/23 06:42:18;;;;;;;9.63;6.13;;;;;;;2.11;49.95;95595.06;5085056;28;20237;-70
2022/01/23 06:44:47;;;;;;;24.40;10.57;;;;;;;2.00;49.97;95602.50;5084228;28;20521;-70
2022/01/23 06:47:13;;;;;;;5.20;4.70;;;;;;;2.69;48.49;95597.13;5085198;28;20292;-70
2022/01/23 06:49:40;;;;;;;21.07;10.70;;;;;;;3.67;46.12;95592.44;5085977;28;20565;-70
2022/01/23 06:52:08;;;;;;;6.67;4.47;;;;;;;4.34;44.40;95593.28;5084778;28;20201;-70
2022/01/23 06:54:35;;;;;;;7.57;5.20;;;;;;;4.35;45.13;95586.56;5086052;28;20255;-69
2022/01/23 06:57:01;;;;;;;4.37;3.97;;;;;;;5.01;43.19;95579.66;5084782;28;20618;-71
2022/01/23 06:59:28;;;;;;;6.60;4.87;;;;;;;4.98;41.75;95585.53;5083934;28;20652;-70
2022/01/23 07:01:57;;;;;;;4.60;3.93;;;;;;;5.16;40.36;95592.22;5085578;28;20229;-70
2022/01/23 07:04:24;;;;;;;5.50;5.00;;;;;;;4.61;41.68;95574.75;5085638;28;20198;-69
2022/01/23 07:06:51;;;;;;;5.30;4.80;;;;;;;4.52;42.30;95587.34;5084628;28;20562;-72
2022/01/23 07:09:18;;;;;;;6.90;5.57;;;;;;;4.14;43.79;95600.00;5085173;27;20205;-72
2022/01/23 07:11:45;;;;;;;6.10;4.93;;;;;;;3.38;44.36;95585.66;5084217;28;20196;-72
2022/01/23 07:14:12;;;;;;;6.07;5.00;;;;;;;2.80;45.53;95598.84;5085248;28;20204;-70
2022/01/23 07:16:39;;;;;;;6.53;5.47;;;;;;;2.87;46.10;95588.00;5084617;28;20667;-72
2022/01/23 07:19:07;;;;;;;8.67;5.33;;;;;;;2.65;46.09;95592.06;5084226;28;20197;-70
2022/01/23 07:21:34;;;;;;;7.57;5.97;;;;;;;1.73;47.74;95588.09;5084608;28;20239;-70
2022/01/23 07:24:02;;;;;;;6.63;5.97;;;;;;;0.66;51.90;95586.94;5085326;28;20197;-72
2022/01/23 07:26:28;;;;;;;7.03;6.33;;;;;;;-0.13;54.68;95590.81;5085173;28;20209;-70
2022/01/23 07:28:58;;;;;;;8.47;6.60;;;;;;;-0.59;56.52;95591.69;5084929;28;20205;-70
2022/01/23 07:31:44;;;;;;;6.93;5.97;;;;;;;-1.48;59.75;95589.16;5084154;28;20295;-70
2022/01/23 07:34:13;;;;;;;7.23;6.03;;;;;;;-1.63;60.91;95596.31;5085224;28;20228;-70
2022/01/23 07:36:40;;;;;;;9.53;5.17;;;;;;;-1.82;61.51;95605.03;5085384;28;20211;-68
2022/01/23 07:39:07;;;;;;;6.13;5.57;;;;;;;-2.08;62.67;95596.13;5083613;28;20197;-69
2022/01/23 07:41:34;;;;;;;8.83;5.93;;;;;;;-2.26;62.76;95600.69;5084141;27;20279;-70
2022/01/23 07:44:01;;;;;;;13.10;8.53;;;;;;;-2.53;64.63;95600.88;5083665;28;20204;-70
2022/01/23 07:46:29;;;;;;;9.23;6.50;;;;;;;-2.50;64.63;95611.75;5084676;28;20254;-71
2022/01/23 07:48:55;;;;;;;6.20;5.60;;;;;;;-2.52;65.42;95607.53;5083866;28;20224;-71
2022/01/23 07:51:24;;;;;;;10.53;6.33;;;;;;;-2.45;65.05;95611.81;5083564;28;20205;-71
2022/01/23 07:53:51;;;;;;;6.80;4.97;;;;;;;-2.44;67.17;95616.00;5084120;27;20204;-72
2022/01/23 07:56:18;;;;;;;8.33;5.83;;;;;;;-2.28;65.64;95620.56;5084770;28;20197;-70
2022/01/23 07:58:45;;;;;;;7.40;5.93;;;;;;;-2.30;65.30;95617.19;5082926;28;20223;-72
2022/01/23 08:01:12;;;;;;;6.37;5.63;;;;;;;-2.48;65.19;95617.59;5083502;28;20228;-70
2022/01/23 08:03:38;;;;;;;8.57;6.23;;;;;;;-2.40;65.38;95622.75;5084311;28;20660;-70
2022/01/23 08:06:05;;;;;;;8.57;5.40;;;;;;;-2.46;64.87;95618.44;5084059;27;20258;-71
2022/01/23 08:08:33;;;;;;;6.23;5.63;;;;;;;-2.45;64.83;95619.28;5083951;28;20276;-70
2022/01/23 08:11:00;;;;;;;8.30;6.13;;;;;;;-2.69;65.69;95602.09;5083484;28;20249;-72
2022/01/23 08:13:27;;;;;;;4.90;4.40;;;;;;;-2.48;67.10;95620.09;5084018;28;20269;-70
2022/01/23 08:15:54;;;;;;;5.53;4.50;;;;;;;-2.34;64.40;95617.09;5083332;28;20792;-72
2022/01/23 08:18:23;;;;;;;5.30;4.83;;;;;;;-2.67;65.15;95624.53;5083387;28;20737;-72
2022/01/23 08:20:50;;;;;;;5.67;4.80;;;;;;;-2.45;64.32;95631.75;5083205;28;21182;-70
2022/01/23 08:23:18;;;;;;;9.20;5.90;;;;;;;-2.53;64.80;95626.59;5083296;28;20221;-70
2022/01/23 08:25:46;;;;;;;5.73;4.67;;;;;;;-2.38;64.58;95626.13;5083364;28;20204;-70
2022/01/23 08:28:14;;;;;;;5.83;4.77;;;;;;;-2.36;64.22;95624.50;5084087;28;20682;-72
2022/01/23 08:30:41;;;;;;;7.17;4.63;;;;;;;-2.46;64.37;95623.44;5082397;28;20765;-73
2022/01/23 08:33:08;;;;;;;4.77;4.37;;;;;;;-2.36;64.59;95624.50;5083071;28;20751;-71
2022/01/23 08:35:34;;;;;;;4.83;4.43;;;;;;;-2.27;64.40;95634.72;5083733;28;20202;-70
2022/01/23 08:38:02;;;;;;;8.57;5.67;;;;;;;-2.31;63.97;95622.97;5084592;28;21277;-69
2022/01/23 08:40:47;;;;;;;12.00;7.10;;;;;;;-2.42;63.41;95619.38;5082844;28;20201;-71
2022/01/23 08:43:17;;;;;;;5.63;5.03;;;;;;;-2.45;63.51;95626.75;5083008;28;20224;-70
2022/01/23 08:45:45;;;;;;;5.57;5.07;;;;;;;-2.23;63.33;95615.72;5083691;28;20606;-71
2022/01/23 08:48:12;;;;;;;8.17;4.60;;;;;;;-2.03;63.00;95618.66;5082297;28;20206;-71
2022/01/23 08:50:40;;;;;;;7.87;4.87;;;;;;;-2.09;63.09;95620.19;5081517;28;20288;-70
2022/01/23 08:53:07;;;;;;;7.37;5.20;;;;;;;-2.11;62.58;95611.84;5083699;28;20193;-71
2022/01/23 08:55:34;;;;;;;5.27;4.63;;;;;;;-2.12;62.82;95625.09;5082093;28;20204;-70
2022/01/23 08:58:01;;;;;;;4.77;4.33;;;;;;;-2.21;62.56;95622.38;5082549;28;20193;-70
2022/01/23 09:00:30;;;;;;;6.20;3.67;;;;;;;-2.22;63.59;95623.19;5079883;28;20198;-73
2022/01/23 09:02:57;;;;;;;4.20;3.80;;;;;;;-2.14;62.08;95626.72;5081599;28;20232;-72
2022/01/23 09:05:25;;;;;;;5.13;4.13;;;;;;;-2.15;61.64;95615.06;5080148;28;20214;-71
2022/01/23 09:07:51;;;;;;;4.43;3.97;;;;;;;-1.95;60.95;95622.16;5080587;28;20208;-73
2022/01/23 09:10:25;;;;;;;4.57;4.17;;;;;;;-1.87;61.24;95621.53;5081692;28;20209;-71
2022/01/23 09:13:05;;;;;;;4.97;4.33;;;;;;;-1.91;62.04;95628.88;5083388;28;20208;-70
2022/01/23 09:15:34;;;;;;;6.40;4.90;;;;;;;-1.93;61.94;95628.00;5082632;28;20205;-70
2022/01/23 09:18:02;;;;;;;8.03;4.43;;;;;;;-1.85;61.11;95621.56;5080513;28;20286;-69
2022/01/23 09:20:29;;;;;;;5.80;4.27;;;;;;;-1.83;61.09;95627.44;5080158;28;20758;-69
2022/01/23 09:22:56;;;;;;;7.40;4.73;;;;;;;-1.88;62.17;95619.00;5080231;28;20247;-71
2022/01/23 09:25:23;;;;;;;4.23;3.87;;;;;;;-1.92;62.68;95628.06;5082444;28;20226;-70
2022/01/23 09:27:50;;;;;;;4.47;4.07;;;;;;;-1.93;62.27;95615.56;5082443;28;20212;-70
2022/01/23 09:30:19;;;;;;;5.97;4.47;;;;;;;-1.86;61.83;95615.75;5081261;28;20229;-71
2022/01/23 09:32:48;;;;;;;7.67;4.03;;;;;;;-1.91;62.11;95608.97;5082762;28;20678;-71
2022/01/23 09:35:17;;;;;;;4.90;4.27;;;;;;;-2.03;63.15;95598.75;5082932;28;20315;-70
2022/01/23 09:37:44;;;;;;;5.50;4.50;;;;;;;-1.89;62.02;95602.38;5081907;28;20204;-71
2022/01/23 09:40:12;;;;;;;4.13;3.73;;;;;;;-1.85;61.12;95604.97;5082414;28;20276;-70
2022/01/23 09:42:44;;;;;;;5.97;4.57;;;;;;;-1.99;62.01;95590.53;5081275;28;20255;-70
2022/01/23 09:45:14;;;;;;;4.73;3.53;;;;;;;-2.04;61.42;95597.91;5082216;28;20635;-70
2022/01/23 09:47:42;;;;;;;7.17;4.07;;;;;;;-2.12;61.72;95589.41;5082255;28;20208;-69
2022/01/23 09:50:13;;;;;;;3.10;2.90;;;;;;;-1.96;61.77;95590.56;5082061;28;20198;-70
2022/01/23 09:52:41;;;;;;;4.40;4.00;;;;;;;-1.97;60.98;95588.91;5082193;28;20217;-70
2022/01/23 09:55:11;;;;;;;3.83;3.53;;;;;;;-1.99;61.17;95593.88;5081426;28;20286;-70
2022/01/23 09:57:41;;;;;;;4.27;3.87;;;;;;;-2.03;60.29;95588.78;5082106;28;20213;-71
2022/01/23 10:00:12;;;;;;;4.20;3.87;;;;;;;-1.91;61.13;95584.06;5081333;28;20205;-70
2022/01/23 10:02:39;;;;;;;6.63;4.00;;;;;;;-1.87;60.94;95578.34;5081804;28;20279;-69
2022/01/23 10:05:08;;;;;;;4.53;4.10;;;;;;;-1.82;60.84;95580.13;5082784;28;20193;-68
2022/01/23 10:07:39;;;;;;;4.60;4.17;;;;;;;-1.91;60.48;95589.88;5081689;28;20201;-69
2022/01/23 10:10:11;;;;;;;9.57;5.33;;;;;;;-1.85;60.86;95580.06;5080588;28;20741;-71
2022/01/23 10:12:41;;;;;;;5.07;4.20;;;;;;;-1.86;60.86;95578.38;5081181;28;20204;-70
2022/01/23 10:15:10;;;;;;;4.30;3.90;;;;;;;-1.83;61.06;95573.47;5080964;28;21027;-70
2022/01/23 10:17:37;;;;;;;3.47;3.17;;;;;;;-1.90;61.07;95570.78;5082534;28;20205;-69
2022/01/23 10:20:07;;;;;;;2.70;2.57;;;;;;;-1.90;60.64;95565.81;5081552;28;20207;-70
2022/01/23 10:22:35;;;;;;;4.93;4.43;;;;;;;-1.90;61.21;95550.88;5080591;28;20733;-70
2022/01/23 10:25:09;;;;;;;5.23;4.03;;;;;;;-1.81;61.40;95553.56;5081624;28;20284;-69
2022/01/23 10:27:58;;;;;;;4.87;4.47;;;;;;;-1.79;61.65;95549.47;5082246;28;20205;-72
2022/01/23 10:30:26;;;;;;;5.17;3.73;;;;;;;-1.65;60.78;95548.09;5081041;28;20225;-70
2022/01/23 10:33:00;;;;;;;3.60;3.30;;;;;;;-1.78;61.36;95533.72;5081879;28;20204;-72
2022/01/23 10:35:27;;;;;;;4.00;3.60;;;;;;;-1.67;60.44;95541.38;5081196;28;20265;-71
2022/01/23 10:37:55;;;;;;;9.30;3.63;;;;;;;-1.74;60.50;95542.94;5082018;28;21292;-71
2022/01/23 10:40:35;;;;;;;4.67;4.27;;;;;;;-1.71;60.60;95542.97;5081186;28;20289;-69
2022/01/23 10:48:50;;;;;;;4.50;3.73;;;;;;;-1.71;59.40;95538.00;5081124;28;20270;-70
2022/01/23 10:51:24;;;;;;;3.70;3.43;;;;;;;-1.79;60.45;95519.56;5080388;28;20205;-71
2022/01/23 10:54:10;;;;;;;7.13;3.33;;;;;;;-1.76;60.04;95529.59;5081181;28;20209;-70
2022/01/23 10:56:48;;;;;;;5.37;4.27;;;;;;;-1.69;60.28;95521.44;5081301;28;20201;-71
2022/01/23 10:59:15;;;;;;;7.33;4.63;;;;;;;-1.80;59.88;95518.72;5080010;28;20225;-71
2022/01/23 11:02:00;;;;;;;8.60;4.10;;;;;;;-1.62;59.35;95515.75;5080589;28;20228;-69
2022/01/23 11:04:27;;;;;;;5.07;3.50;;;;;;;-1.64;59.04;95519.88;5078872;28;20202;-70
2022/01/23 11:06:56;;;;;;;3.50;3.20;;;;;;;-1.61;58.18;95519.09;5079899;28;20274;-70
2022/01/23 11:09:34;;;;;;;4.90;3.70;;;;;;;-1.61;59.00;95509.97;5079393;28;20698;-72
2022/01/23 11:12:05;;;;;;;5.57;4.17;;;;;;;-1.59;59.42;95518.31;5080773;28;20228;-72
2022/01/23 11:17:25;;;;;;;7.70;3.87;;;;;;;-1.47;58.80;95503.59;5081484;28;20244;-70
2022/01/23 11:19:57;;;;;;;3.90;2.67;;;;;;;-1.56;58.12;95505.91;5083631;28;20207;-72
2022/01/23 11:22:28;;;;;;;2.80;2.13;;;;;;;-1.55;59.11;95510.09;5083401;28;20724;-72
2022/01/23 11:24:59;;;;;;;5.23;3.27;;;;;;;-1.60;59.76;95506.66;5083470;28;20212;-71
2022/01/23 11:27:33;;;;;;;4.93;3.33;;;;;;;-1.65;58.86;95503.25;5082138;28;20205;-71
2022/01/23 11:30:04;;;;;;;3.33;3.10;;;;;;;-1.58;58.48;95500.06;5083497;28;20232;-70
2022/01/23 11:32:37;;;;;;;5.10;4.03;;;;;;;-1.70;59.18;95499.81;5083378;28;20238;-71
2022/01/23 11:35:08;;;;;;;5.57;3.43;;;;;;;-1.83;58.83;95493.75;5084753;28;20198;-70
2022/01/23 11:37:36;;;;;;;6.00;3.20;;;;;;;-1.76;58.39;95499.72;5084597;28;20321;-69
2022/01/23 11:40:20;;;;;;;3.63;3.33;;;;;;;-1.63;57.75;95501.63;5083548;28;20763;-71
2022/01/23 11:54:07;;;;;;;3.17;2.77;;;;;;;-1.95;60.42;95482.69;5040572;28;20203;-70
2022/01/23 11:56:46;;;;;;;4.03;3.00;;;;;;;-1.92;60.62;95481.09;5083737;28;20204;-70
2022/01/23 11:59:35;;;;;;;3.57;3.30;;;;;;;-1.91;59.69;95484.44;5082935;28;20315;-70
2022/01/23 12:02:29;;;;;;;7.00;2.90;;;;;;;-2.02;60.94;95479.25;5080504;28;20229;-70
2022/01/23 12:05:20;;;;;;;3.93;2.90;;;;;;;-1.94;60.95;95484.34;5079895;28;20227;-70
2022/01/23 12:08:35;;;;;;;3.90;2.80;;;;;;;-1.97;61.14;95475.16;5080785;28;20201;-70
2022/01/23 12:17:42;;;;;;;3.47;3.00;;;;;;;-2.12;61.63;95470.72;5020293;28;20305;-71
2022/01/23 12:20:10;;;;;;;3.27;2.97;;;;;;;-2.14;62.48;95467.34;5070265;28;20204;-70
2022/01/23 12:22:41;;;;;;;4.37;3.67;;;;;;;-2.20;62.08;95461.41;5078631;28;20228;-70
2022/01/23 12:25:24;;;;;;;3.80;3.37;;;;;;;-2.15;62.30;95472.31;5080397;28;20208;-70
2022/01/23 12:28:12;;;;;;;4.00;3.70;;;;;;;-2.28;63.02;95463.75;5077607;28;20205;-69
2022/01/23 12:30:43;;;;;;;4.17;3.77;;;;;;;-2.10;62.60;95476.56;5079740;28;20228;-71
2022/01/23 12:33:32;;;;;;;4.80;4.30;;;;;;;-2.20;62.77;95477.19;5082083;28;20679;-70
2022/01/23 12:36:05;;;;;;;6.70;3.10;;;;;;;-2.33;62.91;95474.41;5079339;28;20205;-69
2022/01/23 12:38:36;;;;;;;3.07;2.77;;;;;;;-2.26;64.04;95466.28;5081547;28;20629;-69
2022/01/23 12:41:20;;;;;;;7.00;4.03;;;;;;;-2.40;63.14;95478.38;5080381;28;20215;-69
2022/01/23 12:43:47;;;;;;;4.67;3.50;;;;;;;-2.42;64.36;95462.59;5079092;28;20336;-71
2022/01/23 12:46:24;;;;;;;3.67;3.37;;;;;;;-2.48;64.09;95469.94;5079019;28;20263;-70
2022/01/23 12:48:51;;;;;;;5.67;3.17;;;;;;;-2.24;63.92;95464.66;5082312;28;21572;-69
2022/01/23 12:51:45;;;;;;;4.30;3.73;;;;;;;-2.31;64.38;95465.31;5081517;28;20251;-71
2022/01/23 12:54:16;;;;;;;5.97;2.80;;;;;;;-2.28;64.50;95473.69;5045305;28;20201;-70
2022/01/23 12:56:44;;;;;;;3.47;3.10;;;;;;;-2.19;64.53;95478.03;5081169;28;20201;-71
2022/01/23 12:59:19;;;;;;;3.63;3.33;;;;;;;-2.10;64.11;95474.09;5081882;28;20204;-70
2022/01/23 13:01:50;;;;;;;6.50;3.90;;;;;;;-2.09;63.53;95470.78;5079440;28;20213;-70
2022/01/23 13:04:17;;;;;;;5.60;3.67;;;;;;;-2.09;63.84;95478.25;5077616;28;20201;-69
2022/01/23 13:06:51;;;;;;;4.33;3.40;;;;;;;-2.02;63.84;95480.88;5079700;28;20316;-70
2022/01/23 13:09:25;;;;;;;5.47;3.90;;;;;;;-2.05;63.73;95474.19;5082301;28;20197;-71
2022/01/23 13:12:05;;;;;;;3.17;2.60;;;;;;;-2.28;65.00;95478.69;5081408;28;20205;-69
2022/01/23 13:14:49;;;;;;;5.03;3.80;;;;;;;-2.29;65.89;95472.03;5081641;28;20188;-70
2022/01/23 13:17:40;;;;;;;3.63;3.23;;;;;;;-2.22;65.38;95471.31;5081610;28;20561;-71
2022/01/23 13:31:49;;;;;;;4.37;3.27;;;;;;;-2.40;64.94;95478.38;5017082;28;20341;-70
2022/01/23 13:34:25;;;;;;;4.93;3.70;;;;;;;-2.54;65.13;95484.72;5017481;28;20718;-71
2022/01/23 13:36:57;;;;;;;4.20;3.80;;;;;;;-2.47;64.90;95489.84;5050094;28;20197;-70
2022/01/23 13:39:28;;;;;;;3.37;3.13;;;;;;;-2.28;64.19;95490.28;5081424;28;20663;-73
2022/01/23 13:42:16;;;;;;;4.13;3.50;;;;;;;-2.21;64.04;95485.44;5078287;28;20259;-71
2022/01/23 13:53:25;;;;;;;3.20;2.90;;;;;;;-2.29;63.74;95494.41;5080954;28;20208;-70
2022/01/23 13:58:38;;;;;;;3.37;3.03;;;;;;;-2.25;63.90;95485.38;5081076;28;20721;-69
2022/01/23 14:03:57;;;;;;;3.87;3.40;;;;;;;-2.25;64.68;95478.75;5067280;28;20231;-70
2022/01/23 14:06:26;;;;;;;3.80;3.50;;;;;;;-2.21;63.78;95474.66;5078788;28;20201;-70
2022/01/23 14:09:07;;;;;;;21.37;3.87;;;;;;;-2.46;63.76;95453.38;5079673;28;20952;-70
2022/01/23 14:11:34;;;;;;;3.30;3.07;;;;;;;-2.22;63.58;95470.47;5076730;28;20202;-69
2022/01/23 14:14:15;;;;;;;4.47;3.80;;;;;;;-2.26;63.34;95457.16;5078651;28;20209;-70
2022/01/23 14:16:45;;;;;;;7.13;4.33;;;;;;;-2.19;63.57;95473.88;5081018;28;20651;-69
2022/01/23 14:19:16;;;;;;;3.50;3.20;;;;;;;-2.25;63.23;95468.78;5080827;28;20258;-70
2022/01/23 14:21:48;;;;;;;4.20;3.40;;;;;;;-2.56;63.44;95439.91;5080260;28;20285;-70
2022/01/23 14:24:21;;;;;;;4.63;3.83;;;;;;;-2.27;63.39;95482.84;5079965;28;20221;-70
2022/01/23 14:27:00;;;;;;;46.47;19.07;;;;;;;-2.23;63.77;95482.13;5080433;28;20362;-72
2022/01/23 14:29:27;;;;;;;5.93;3.70;;;;;;;-2.23;63.26;95482.13;5082038;28;20283;-69
2022/01/23 14:32:09;;;;;;;4.20;2.90;;;;;;;-2.51;63.87;95482.31;5081141;28;20198;-70
2022/01/23 14:34:35;;;;;;;5.87;3.90;;;;;;;-2.40;64.16;95499.16;5079736;28;20615;-70
2022/01/23 14:37:06;;;;;;;4.33;3.93;;;;;;;-2.39;64.64;95504.97;5081553;28;20314;-69
2022/01/23 14:39:34;;;;;;;5.60;4.20;;;;;;;-2.50;64.22;95504.75;5080714;28;20201;-70
2022/01/23 14:42:11;;;;;;;8.83;5.27;;;;;;;-2.55;64.72;95493.81;5079960;28;20193;-70
2022/01/23 14:44:38;;;;;;;27.13;12.60;;;;;;;-2.42;66.17;95509.88;5080197;28;20220;-70
2022/01/23 14:47:06;;;;;;;6.33;5.20;;;;;;;-2.34;64.77;95508.41;5080517;28;20206;-70